sensor_id;sensor_type;location;lat;lon;timestamp;P1;durP1;ratioP1;P2;durP2;ratioP2
37451;SDS011;23314;51.114;6.900;2022-08-27T00:00:11;7.30;;;6.43;;
37451;SDS011;23314;51.114;6.900;2022-08-27T00:02:41;7.30;;;6.13;;
37451;SDS011;23314;51.114;6.900;2022-08-27T00:05:08;7.77;;;6.93;;
37451;SDS011;23314;51.114;6.900;2022-08-27T00:07:34;8.53;;;7.40;;
37451;SDS011;23314;51.114;6.900;2022-08-27T00:09:59;8.53;;;7.60;;
37451;SDS011;23314;51.114;6.900;2022-08-27T00:12:25;9.63;;;8.00;;
37451;SDS011;23314;51.114;6.900;2022-08-27T00:14:50;10.50;;;8.37;;
37451;SDS011;23314;51.114;6.900;2022-08-27T00:17:16;7.67;;;6.97;;
37451;SDS011;23314;51.114;6.900;2022-08-27T00:19:41;7.93;;;7.13;;
37451;SDS011;23314;51.114;6.900;2022-08-27T00:22:07;7.60;;;6.87;;
37451;SDS011;23314;51.114;6.900;2022-08-27T00:24:34;7.73;;;6.50;;
37451;SDS011;23314;51.114;6.900;2022-08-27T00:27:00;9.80;;;6.43;;
37451;SDS011;23314;51.114;6.900;2022-08-27T00:29:25;9.53;;;6.83;;
37451;SDS011;23314;51.114;6.900;2022-08-27T00:31:51;10.57;;;8.47;;
37451;SDS011;23314;51.114;6.900;2022-08-27T00:34:17;10.60;;;9.70;;
37451;SDS011;23314;51.114;6.900;2022-08-27T00:36:43;14.30;;;11.77;;
37451;SDS011;23314;51.114;6.900;2022-08-27T00:39:09;20.97;;;16.67;;
37451;SDS011;23314;51.114;6.900;2022-08-27T00:41:35;21.43;;;18.03;;
37451;SDS011;23314;51.114;6.900;2022-08-27T00:44:02;24.07;;;20.97;;
37451;SDS011;23314;51.114;6.900;2022-08-27T00:49:19;25.63;;;20.00;;
37451;SDS011;23314;51.114;6.900;2022-08-27T00:51:55;32.47;;;28.17;;
37451;SDS011;23314;51.114;6.900;2022-08-27T00:54:23;35.97;;;31.80;;
37451;SDS011;23314;51.114;6.900;2022-08-27T00:56:50;37.83;;;31.60;;
37451;SDS011;23314;51.114;6.900;2022-08-27T00:59:16;36.10;;;31.97;;
37451;SDS011;23314;51.114;6.900;2022-08-27T01:01:43;35.73;;;30.77;;
37451;SDS011;23314;51.114;6.900;2022-08-27T01:04:29;35.97;;;31.43;;
37451;SDS011;23314;51.114;6.900;2022-08-27T01:06:56;31.57;;;27.60;;
37451;SDS011;23314;51.114;6.900;2022-08-27T01:09:23;29.97;;;26.80;;
37451;SDS011;23314;51.114;6.900;2022-08-27T01:11:49;26.27;;;23.57;;
37451;SDS011;23314;51.114;6.900;2022-08-27T01:14:15;25.60;;;21.77;;
37451;SDS011;23314;51.114;6.900;2022-08-27T01:16:44;24.80;;;22.13;;
37451;SDS011;23314;51.114;6.900;2022-08-27T01:19:26;25.33;;;21.77;;
37451;SDS011;23314;51.114;6.900;2022-08-27T01:25:06;24.07;;;20.87;;
37451;SDS011;23314;51.114;6.900;2022-08-27T01:27:33;23.03;;;20.43;;
37451;SDS011;23314;51.114;6.900;2022-08-27T01:29:59;22.27;;;20.03;;
37451;SDS011;23314;51.114;6.900;2022-08-27T01:32:26;25.50;;;20.73;;
37451;SDS011;23314;51.114;6.900;2022-08-27T01:34:54;24.43;;;20.20;;
37451;SDS011;23314;51.114;6.900;2022-08-27T01:37:19;26.13;;;21.43;;
37451;SDS011;23314;51.114;6.900;2022-08-27T01:39:45;23.10;;;20.73;;
37451;SDS011;23314;51.114;6.900;2022-08-27T01:42:16;24.43;;;21.77;;
37451;SDS011;23314;51.114;6.900;2022-08-27T01:44:50;23.60;;;20.13;;
37451;SDS011;23314;51.114;6.900;2022-08-27T01:47:21;22.20;;;19.60;;
37451;SDS011;23314;51.114;6.900;2022-08-27T01:49:48;24.07;;;19.63;;
37451;SDS011;23314;51.114;6.900;2022-08-27T01:52:15;24.67;;;21.83;;
37451;SDS011;23314;51.114;6.900;2022-08-27T01:54:43;26.07;;;20.43;;
37451;SDS011;23314;51.114;6.900;2022-08-27T01:57:09;27.10;;;20.87;;
37451;SDS011;23314;51.114;6.900;2022-08-27T01:59:34;23.00;;;20.00;;
37451;SDS011;23314;51.114;6.900;2022-08-27T02:02:00;25.33;;;22.73;;
37451;SDS011;23314;51.114;6.900;2022-08-27T02:04:26;26.50;;;20.93;;
37451;SDS011;23314;51.114;6.900;2022-08-27T02:06:52;26.87;;;22.07;;
37451;SDS011;23314;51.114;6.900;2022-08-27T02:09:18;27.20;;;22.30;;
37451;SDS011;23314;51.114;6.900;2022-08-27T02:11:43;28.07;;;22.60;;
37451;SDS011;23314;51.114;6.900;2022-08-27T02:14:09;30.70;;;24.10;;
37451;SDS011;23314;51.114;6.900;2022-08-27T02:16:34;32.33;;;23.90;;
37451;SDS011;23314;51.114;6.900;2022-08-27T02:19:01;32.23;;;23.80;;
37451;SDS011;23314;51.114;6.900;2022-08-27T02:21:27;28.20;;;19.77;;
37451;SDS011;23314;51.114;6.900;2022-08-27T02:23:52;30.30;;;21.53;;
37451;SDS011;23314;51.114;6.900;2022-08-27T02:26:19;25.03;;;21.07;;
37451;SDS011;23314;51.114;6.900;2022-08-27T02:28:45;25.40;;;20.53;;
37451;SDS011;23314;51.114;6.900;2022-08-27T02:31:11;22.90;;;19.87;;
37451;SDS011;23314;51.114;6.900;2022-08-27T02:33:36;25.70;;;18.30;;
37451;SDS011;23314;51.114;6.900;2022-08-27T02:36:02;24.70;;;17.97;;
37451;SDS011;23314;51.114;6.900;2022-08-27T02:38:27;24.57;;;17.40;;
37451;SDS011;23314;51.114;6.900;2022-08-27T02:40:53;20.50;;;16.97;;
37451;SDS011;23314;51.114;6.900;2022-08-27T02:43:18;22.23;;;16.30;;
37451;SDS011;23314;51.114;6.900;2022-08-27T02:45:43;21.97;;;16.50;;
37451;SDS011;23314;51.114;6.900;2022-08-27T02:48:09;21.50;;;15.57;;
37451;SDS011;23314;51.114;6.900;2022-08-27T02:50:34;21.43;;;14.73;;
37451;SDS011;23314;51.114;6.900;2022-08-27T02:53:00;21.07;;;14.27;;
37451;SDS011;23314;51.114;6.900;2022-08-27T02:55:27;16.47;;;13.03;;
37451;SDS011;23314;51.114;6.900;2022-08-27T02:57:52;18.60;;;12.20;;
37451;SDS011;23314;51.114;6.900;2022-08-27T03:00:18;20.47;;;11.17;;
37451;SDS011;23314;51.114;6.900;2022-08-27T03:02:45;18.57;;;10.40;;
37451;SDS011;23314;51.114;6.900;2022-08-27T03:05:11;14.80;;;10.60;;
37451;SDS011;23314;51.114;6.900;2022-08-27T03:07:38;14.50;;;10.17;;
37451;SDS011;23314;51.114;6.900;2022-08-27T03:10:04;14.43;;;10.43;;
37451;SDS011;23314;51.114;6.900;2022-08-27T03:12:30;19.20;;;11.57;;
37451;SDS011;23314;51.114;6.900;2022-08-27T03:14:56;21.43;;;13.20;;
37451;SDS011;23314;51.114;6.900;2022-08-27T03:17:21;17.20;;;12.83;;
37451;SDS011;23314;51.114;6.900;2022-08-27T03:20:06;19.27;;;12.77;;
37451;SDS011;23314;51.114;6.900;2022-08-27T03:22:33;18.17;;;12.10;;
37451;SDS011;23314;51.114;6.900;2022-08-27T03:25:00;14.83;;;12.30;;
37451;SDS011;23314;51.114;6.900;2022-08-27T03:27:26;19.27;;;13.87;;
37451;SDS011;23314;51.114;6.900;2022-08-27T03:29:51;16.23;;;11.60;;
37451;SDS011;23314;51.114;6.900;2022-08-27T03:32:17;19.00;;;12.50;;
37451;SDS011;23314;51.114;6.900;2022-08-27T03:34:42;19.47;;;13.27;;
37451;SDS011;23314;51.114;6.900;2022-08-27T03:37:10;17.80;;;11.63;;
37451;SDS011;23314;51.114;6.900;2022-08-27T03:39:36;15.93;;;9.87;;
37451;SDS011;23314;51.114;6.900;2022-08-27T03:42:01;14.90;;;10.33;;
37451;SDS011;23314;51.114;6.900;2022-08-27T03:44:27;13.13;;;8.87;;
37451;SDS011;23314;51.114;6.900;2022-08-27T03:46:52;14.00;;;8.00;;
37451;SDS011;23314;51.114;6.900;2022-08-27T03:49:18;10.77;;;6.60;;
37451;SDS011;23314;51.114;6.900;2022-08-27T03:51:45;16.00;;;6.17;;
37451;SDS011;23314;51.114;6.900;2022-08-27T03:54:10;9.23;;;5.00;;
37451;SDS011;23314;51.114;6.900;2022-08-27T03:56:36;10.83;;;5.17;;
37451;SDS011;23314;51.114;6.900;2022-08-27T03:59:04;9.47;;;4.30;;
37451;SDS011;23314;51.114;6.900;2022-08-27T04:01:30;11.07;;;5.43;;
37451;SDS011;23314;51.114;6.900;2022-08-27T04:03:56;9.83;;;4.03;;
37451;SDS011;23314;51.114;6.900;2022-08-27T04:06:21;10.00;;;4.33;;
37451;SDS011;23314;51.114;6.900;2022-08-27T04:08:47;9.13;;;4.20;;
37451;SDS011;23314;51.114;6.900;2022-08-27T04:11:12;7.33;;;3.73;;
37451;SDS011;23314;51.114;6.900;2022-08-27T04:13:37;9.30;;;3.73;;
37451;SDS011;23314;51.114;6.900;2022-08-27T04:16:05;7.87;;;3.63;;
37451;SDS011;23314;51.114;6.900;2022-08-27T04:18:31;9.13;;;3.47;;
37451;SDS011;23314;51.114;6.900;2022-08-27T04:20:56;7.27;;;3.97;;
37451;SDS011;23314;51.114;6.900;2022-08-27T04:23:22;9.00;;;3.90;;
37451;SDS011;23314;51.114;6.900;2022-08-27T04:25:47;8.00;;;4.20;;
37451;SDS011;23314;51.114;6.900;2022-08-27T04:28:14;9.83;;;3.70;;
37451;SDS011;23314;51.114;6.900;2022-08-27T04:30:41;13.20;;;4.23;;
37451;SDS011;23314;51.114;6.900;2022-08-27T04:33:08;9.93;;;3.50;;
37451;SDS011;23314;51.114;6.900;2022-08-27T04:35:34;7.80;;;3.70;;
37451;SDS011;23314;51.114;6.900;2022-08-27T04:38:00;8.33;;;3.47;;
37451;SDS011;23314;51.114;6.900;2022-08-27T04:40:25;15.17;;;3.83;;
37451;SDS011;23314;51.114;6.900;2022-08-27T04:43:11;6.93;;;3.30;;
37451;SDS011;23314;51.114;6.900;2022-08-27T04:45:42;9.50;;;4.07;;
37451;SDS011;23314;51.114;6.900;2022-08-27T04:48:09;9.40;;;3.97;;
37451;SDS011;23314;51.114;6.900;2022-08-27T04:50:43;8.87;;;3.73;;
37451;SDS011;23314;51.114;6.900;2022-08-27T04:53:10;11.47;;;4.13;;
37451;SDS011;23314;51.114;6.900;2022-08-27T04:55:41;8.33;;;4.70;;
37451;SDS011;23314;51.114;6.900;2022-08-27T04:58:07;14.60;;;4.17;;
37451;SDS011;23314;51.114;6.900;2022-08-27T05:00:32;9.27;;;4.60;;
37451;SDS011;23314;51.114;6.900;2022-08-27T05:02:58;16.33;;;4.70;;
37451;SDS011;23314;51.114;6.900;2022-08-27T05:05:25;13.37;;;4.40;;
37451;SDS011;23314;51.114;6.900;2022-08-27T05:07:51;14.30;;;5.00;;
37451;SDS011;23314;51.114;6.900;2022-08-27T05:10:16;11.33;;;5.10;;
37451;SDS011;23314;51.114;6.900;2022-08-27T05:12:42;14.70;;;5.20;;
37451;SDS011;23314;51.114;6.900;2022-08-27T05:15:07;13.37;;;5.87;;
37451;SDS011;23314;51.114;6.900;2022-08-27T05:17:33;8.93;;;6.00;;
37451;SDS011;23314;51.114;6.900;2022-08-27T05:19:58;11.37;;;5.93;;
37451;SDS011;23314;51.114;6.900;2022-08-27T05:22:23;16.43;;;5.80;;
37451;SDS011;23314;51.114;6.900;2022-08-27T05:24:49;9.87;;;5.50;;
37451;SDS011;23314;51.114;6.900;2022-08-27T05:27:14;12.47;;;6.27;;
37451;SDS011;23314;51.114;6.900;2022-08-27T05:29:40;11.80;;;5.47;;
37451;SDS011;23314;51.114;6.900;2022-08-27T05:32:05;9.70;;;6.10;;
37451;SDS011;23314;51.114;6.900;2022-08-27T05:34:30;11.37;;;5.70;;
37451;SDS011;23314;51.114;6.900;2022-08-27T05:36:55;12.10;;;6.23;;
37451;SDS011;23314;51.114;6.900;2022-08-27T05:39:21;13.13;;;6.33;;
37451;SDS011;23314;51.114;6.900;2022-08-27T05:41:46;13.53;;;6.97;;
37451;SDS011;23314;51.114;6.900;2022-08-27T05:44:12;11.83;;;6.73;;
37451;SDS011;23314;51.114;6.900;2022-08-27T05:46:37;17.33;;;8.10;;
37451;SDS011;23314;51.114;6.900;2022-08-27T05:49:03;12.33;;;6.97;;
37451;SDS011;23314;51.114;6.900;2022-08-27T05:51:30;12.03;;;7.20;;
37451;SDS011;23314;51.114;6.900;2022-08-27T05:53:58;10.90;;;6.77;;
37451;SDS011;23314;51.114;6.900;2022-08-27T05:56:27;16.33;;;8.03;;
37451;SDS011;23314;51.114;6.900;2022-08-27T05:58:54;18.37;;;8.13;;
37451;SDS011;23314;51.114;6.900;2022-08-27T06:01:40;12.83;;;7.63;;
37451;SDS011;23314;51.114;6.900;2022-08-27T06:04:07;10.77;;;7.07;;
37451;SDS011;23314;51.114;6.900;2022-08-27T06:06:33;10.07;;;7.60;;
37451;SDS011;23314;51.114;6.900;2022-08-27T06:09:00;15.30;;;8.40;;
37451;SDS011;23314;51.114;6.900;2022-08-27T06:11:25;15.27;;;8.00;;
37451;SDS011;23314;51.114;6.900;2022-08-27T06:13:51;18.97;;;8.97;;
37451;SDS011;23314;51.114;6.900;2022-08-27T06:16:17;17.60;;;8.80;;
37451;SDS011;23314;51.114;6.900;2022-08-27T06:18:44;13.57;;;8.50;;
37451;SDS011;23314;51.114;6.900;2022-08-27T06:21:11;17.20;;;8.60;;
37451;SDS011;23314;51.114;6.900;2022-08-27T06:23:37;17.30;;;8.93;;
37451;SDS011;23314;51.114;6.900;2022-08-27T06:26:07;16.13;;;8.90;;
37451;SDS011;23314;51.114;6.900;2022-08-27T06:28:37;11.07;;;8.87;;
37451;SDS011;23314;51.114;6.900;2022-08-27T06:31:19;16.40;;;8.13;;
37451;SDS011;23314;51.114;6.900;2022-08-27T06:33:47;14.20;;;7.40;;
37451;SDS011;23314;51.114;6.900;2022-08-27T06:36:14;12.90;;;8.20;;
37451;SDS011;23314;51.114;6.900;2022-08-27T06:38:42;13.90;;;7.83;;
37451;SDS011;23314;51.114;6.900;2022-08-27T06:41:08;16.73;;;7.63;;
37451;SDS011;23314;51.114;6.900;2022-08-27T06:43:36;12.57;;;7.40;;
37451;SDS011;23314;51.114;6.900;2022-08-27T06:46:03;15.27;;;7.63;;
37451;SDS011;23314;51.114;6.900;2022-08-27T06:48:30;13.20;;;7.20;;
37451;SDS011;23314;51.114;6.900;2022-08-27T06:50:55;13.00;;;7.30;;
37451;SDS011;23314;51.114;6.900;2022-08-27T06:53:20;9.53;;;5.90;;
37451;SDS011;23314;51.114;6.900;2022-08-27T06:55:46;10.03;;;6.03;;
37451;SDS011;23314;51.114;6.900;2022-08-27T06:58:13;16.87;;;7.00;;
37451;SDS011;23314;51.114;6.900;2022-08-27T07:00:41;16.33;;;6.93;;
37451;SDS011;23314;51.114;6.900;2022-08-27T07:03:06;11.70;;;6.93;;
37451;SDS011;23314;51.114;6.900;2022-08-27T07:05:33;12.07;;;6.80;;
37451;SDS011;23314;51.114;6.900;2022-08-27T07:07:59;11.83;;;6.80;;
37451;SDS011;23314;51.114;6.900;2022-08-27T07:10:26;14.27;;;7.50;;
37451;SDS011;23314;51.114;6.900;2022-08-27T07:12:52;13.33;;;7.37;;
37451;SDS011;23314;51.114;6.900;2022-08-27T07:15:18;10.97;;;6.10;;
37451;SDS011;23314;51.114;6.900;2022-08-27T07:17:44;7.40;;;5.97;;
37451;SDS011;23314;51.114;6.900;2022-08-27T07:20:10;11.60;;;5.87;;
37451;SDS011;23314;51.114;6.900;2022-08-27T07:22:40;9.17;;;6.47;;
37451;SDS011;23314;51.114;6.900;2022-08-27T07:25:07;13.07;;;7.17;;
37451;SDS011;23314;51.114;6.900;2022-08-27T07:27:36;7.97;;;5.77;;
37451;SDS011;23314;51.114;6.900;2022-08-27T07:30:02;11.23;;;6.57;;
37451;SDS011;23314;51.114;6.900;2022-08-27T07:32:29;10.57;;;5.70;;
37451;SDS011;23314;51.114;6.900;2022-08-27T07:34:54;10.23;;;6.07;;
37451;SDS011;23314;51.114;6.900;2022-08-27T07:37:20;7.63;;;5.63;;
37451;SDS011;23314;51.114;6.900;2022-08-27T07:39:46;12.80;;;5.77;;
37451;SDS011;23314;51.114;6.900;2022-08-27T07:42:12;9.93;;;6.23;;
37451;SDS011;23314;51.114;6.900;2022-08-27T07:44:55;11.17;;;5.60;;
37451;SDS011;23314;51.114;6.900;2022-08-27T07:47:21;9.57;;;5.77;;
37451;SDS011;23314;51.114;6.900;2022-08-27T07:49:46;11.67;;;5.63;;
37451;SDS011;23314;51.114;6.900;2022-08-27T07:52:11;10.77;;;5.90;;
37451;SDS011;23314;51.114;6.900;2022-08-27T07:54:37;8.60;;;5.80;;
37451;SDS011;23314;51.114;6.900;2022-08-27T07:57:02;10.00;;;5.67;;
37451;SDS011;23314;51.114;6.900;2022-08-27T07:59:28;8.93;;;6.27;;
37451;SDS011;23314;51.114;6.900;2022-08-27T08:01:54;13.17;;;6.23;;
37451;SDS011;23314;51.114;6.900;2022-08-27T08:04:20;17.33;;;6.97;;
37451;SDS011;23314;51.114;6.900;2022-08-27T08:06:47;10.37;;;6.27;;
37451;SDS011;23314;51.114;6.900;2022-08-27T08:09:12;10.40;;;6.50;;
37451;SDS011;23314;51.114;6.900;2022-08-27T08:11:38;11.47;;;6.50;;
37451;SDS011;23314;51.114;6.900;2022-08-27T08:14:03;10.97;;;6.43;;
37451;SDS011;23314;51.114;6.900;2022-08-27T08:16:29;10.07;;;7.50;;
37451;SDS011;23314;51.114;6.900;2022-08-27T08:18:54;8.20;;;6.13;;
37451;SDS011;23314;51.114;6.900;2022-08-27T08:21:20;12.57;;;6.33;;
37451;SDS011;23314;51.114;6.900;2022-08-27T08:23:45;8.73;;;6.53;;
37451;SDS011;23314;51.114;6.900;2022-08-27T08:26:13;9.32;;;6.50;;
37451;SDS011;23314;51.114;6.900;2022-08-27T08:28:38;13.00;;;7.43;;
37451;SDS011;23314;51.114;6.900;2022-08-27T08:31:04;7.63;;;6.93;;
37451;SDS011;23314;51.114;6.900;2022-08-27T08:33:30;11.77;;;6.90;;
37451;SDS011;23314;51.114;6.900;2022-08-27T08:36:07;13.07;;;6.80;;
37451;SDS011;23314;51.114;6.900;2022-08-27T08:38:34;12.45;;;6.57;;
37451;SDS011;23314;51.114;6.900;2022-08-27T08:41:01;11.23;;;7.00;;
37451;SDS011;23314;51.114;6.900;2022-08-27T08:46:45;11.30;;;6.50;;
37451;SDS011;23314;51.114;6.900;2022-08-27T08:49:13;8.00;;;5.73;;
37451;SDS011;23314;51.114;6.900;2022-08-27T09:01:03;7.57;;;5.57;;
37451;SDS011;23314;51.114;6.900;2022-08-27T09:03:32;14.80;;;5.87;;
37451;SDS011;23314;51.114;6.900;2022-08-27T09:06:13;9.00;;;5.82;;
37451;SDS011;23314;51.114;6.900;2022-08-27T09:08:44;8.25;;;5.65;;
37451;SDS011;23314;51.114;6.900;2022-08-27T09:13:55;6.53;;;5.38;;
37451;SDS011;23314;51.114;6.900;2022-08-27T09:16:22;8.60;;;4.65;;
37451;SDS011;23314;51.114;6.900;2022-08-27T09:18:48;9.75;;;5.13;;
37451;SDS011;23314;51.114;6.900;2022-08-27T09:24:13;9.93;;;5.40;;
37451;SDS011;23314;51.114;6.900;2022-08-27T09:26:46;10.65;;;5.60;;
37451;SDS011;23314;51.114;6.900;2022-08-27T09:29:13;7.15;;;5.28;;
37451;SDS011;23314;51.114;6.900;2022-08-27T09:31:40;10.57;;;6.03;;
37451;SDS011;23314;51.114;6.900;2022-08-27T09:34:17;9.50;;;5.85;;
37451;SDS011;23314;51.114;6.900;2022-08-27T09:42:07;8.93;;;4.90;;
37451;SDS011;23314;51.114;6.900;2022-08-27T09:44:43;8.15;;;4.97;;
37451;SDS011;23314;51.114;6.900;2022-08-27T09:47:11;5.47;;;4.65;;
37451;SDS011;23314;51.114;6.900;2022-08-27T09:49:39;9.02;;;4.88;;
37451;SDS011;23314;51.114;6.900;2022-08-27T09:52:05;8.18;;;5.22;;
37451;SDS011;23314;51.114;6.900;2022-08-27T09:54:38;8.57;;;5.25;;
37451;SDS011;23314;51.114;6.900;2022-08-27T09:57:06;8.40;;;6.70;;
37451;SDS011;23314;51.114;6.900;2022-08-27T09:59:39;6.47;;;5.45;;
37451;SDS011;23314;51.114;6.900;2022-08-27T10:04:44;9.50;;;5.45;;
37451;SDS011;23314;51.114;6.900;2022-08-27T10:07:17;8.18;;;6.15;;
37451;SDS011;23314;51.114;6.900;2022-08-27T10:09:53;10.15;;;6.55;;
37451;SDS011;23314;51.114;6.900;2022-08-27T10:15:23;11.35;;;6.53;;
37451;SDS011;23314;51.114;6.900;2022-08-27T10:18:02;8.15;;;6.07;;
37451;SDS011;23314;51.114;6.900;2022-08-27T10:29:39;8.13;;;5.82;;
37451;SDS011;23314;51.114;6.900;2022-08-27T10:32:26;8.18;;;5.63;;
37451;SDS011;23314;51.114;6.900;2022-08-27T10:35:12;9.13;;;5.50;;
37451;SDS011;23314;51.114;6.900;2022-08-27T10:37:47;8.65;;;5.13;;
37451;SDS011;23314;51.114;6.900;2022-08-27T10:48:51;7.25;;;4.10;;
37451;SDS011;23314;51.114;6.900;2022-08-27T10:51:25;8.23;;;4.55;;
37451;SDS011;23314;51.114;6.900;2022-08-27T10:54:14;9.45;;;4.45;;
37451;SDS011;23314;51.114;6.900;2022-08-27T10:59:30;11.88;;;5.65;;
37451;SDS011;23314;51.114;6.900;2022-08-27T11:02:10;9.52;;;4.32;;
37451;SDS011;23314;51.114;6.900;2022-08-27T11:04:54;10.00;;;5.93;;
37451;SDS011;23314;51.114;6.900;2022-08-27T11:07:24;6.65;;;4.90;;
37451;SDS011;23314;51.114;6.900;2022-08-27T11:09:55;6.63;;;4.80;;
37451;SDS011;23314;51.114;6.900;2022-08-27T11:12:29;7.78;;;5.20;;
37451;SDS011;23314;51.114;6.900;2022-08-27T11:15:00;7.38;;;5.00;;
37451;SDS011;23314;51.114;6.900;2022-08-27T11:20:19;7.55;;;5.07;;
37451;SDS011;23314;51.114;6.900;2022-08-27T11:22:56;4.90;;;4.50;;
37451;SDS011;23314;51.114;6.900;2022-08-27T11:26:09;7.95;;;4.90;;
37451;SDS011;23314;51.114;6.900;2022-08-27T11:28:25;5.47;;;4.97;;
37451;SDS011;23314;51.114;6.900;2022-08-27T11:39:03;9.85;;;4.25;;
37451;SDS011;23314;51.114;6.900;2022-08-27T11:41:50;8.63;;;4.05;;
37451;SDS011;23314;51.114;6.900;2022-08-27T11:44:25;6.80;;;4.00;;
37451;SDS011;23314;51.114;6.900;2022-08-27T11:46:55;10.10;;;3.90;;
37451;SDS011;23314;51.114;6.900;2022-08-27T11:49:45;11.45;;;3.70;;
37451;SDS011;23314;51.114;6.900;2022-08-27T11:52:21;9.60;;;3.95;;
37451;SDS011;23314;51.114;6.900;2022-08-27T11:57:48;7.30;;;3.70;;
37451;SDS011;23314;51.114;6.900;2022-08-27T12:02:56;9.93;;;3.72;;
37451;SDS011;23314;51.114;6.900;2022-08-27T12:08:11;7.38;;;3.45;;
37451;SDS011;23314;51.114;6.900;2022-08-27T12:13:51;6.40;;;3.30;;
37451;SDS011;23314;51.114;6.900;2022-08-27T12:27:13;6.68;;;3.63;;
37451;SDS011;23314;51.114;6.900;2022-08-27T12:29:47;7.95;;;3.50;;
37451;SDS011;23314;51.114;6.900;2022-08-27T12:43:45;5.07;;;3.13;;
37451;SDS011;23314;51.114;6.900;2022-08-27T12:46:10;5.65;;;2.92;;
37451;SDS011;23314;51.114;6.900;2022-08-27T12:51:23;7.93;;;3.22;;
37451;SDS011;23314;51.114;6.900;2022-08-27T13:02:12;5.03;;;2.83;;
37451;SDS011;23314;51.114;6.900;2022-08-27T13:04:45;3.63;;;2.75;;
37451;SDS011;23314;51.114;6.900;2022-08-27T13:07:12;7.57;;;3.03;;
37451;SDS011;23314;51.114;6.900;2022-08-27T13:09:48;6.18;;;2.78;;
37451;SDS011;23314;51.114;6.900;2022-08-27T13:12:15;6.55;;;2.70;;
37451;SDS011;23314;51.114;6.900;2022-08-27T13:14:41;5.20;;;2.50;;
37451;SDS011;23314;51.114;6.900;2022-08-27T13:17:12;6.63;;;2.90;;
37451;SDS011;23314;51.114;6.900;2022-08-27T13:19:47;7.28;;;2.95;;
37451;SDS011;23314;51.114;6.900;2022-08-27T13:22:30;4.30;;;2.60;;
37451;SDS011;23314;51.114;6.900;2022-08-27T13:25:03;5.70;;;3.13;;
37451;SDS011;23314;51.114;6.900;2022-08-27T13:27:31;4.70;;;3.13;;
37451;SDS011;23314;51.114;6.900;2022-08-27T13:30:02;4.70;;;3.25;;
37451;SDS011;23314;51.114;6.900;2022-08-27T13:32:30;6.60;;;3.17;;
37451;SDS011;23314;51.114;6.900;2022-08-27T13:34:57;5.47;;;3.35;;
37451;SDS011;23314;51.114;6.900;2022-08-27T13:37:26;5.15;;;3.80;;
37451;SDS011;23314;51.114;6.900;2022-08-27T13:39:56;4.82;;;3.42;;
37451;SDS011;23314;51.114;6.900;2022-08-27T13:42:21;6.72;;;4.63;;
37451;SDS011;23314;51.114;6.900;2022-08-27T13:44:49;5.25;;;4.50;;
37451;SDS011;23314;51.114;6.900;2022-08-27T13:47:16;8.38;;;4.75;;
37451;SDS011;23314;51.114;6.900;2022-08-27T13:49:46;7.35;;;4.60;;
37451;SDS011;23314;51.114;6.900;2022-08-27T13:54:50;10.15;;;5.07;;
37451;SDS011;23314;51.114;6.900;2022-08-27T13:57:30;6.85;;;4.35;;
37451;SDS011;23314;51.114;6.900;2022-08-27T14:02:49;7.60;;;5.70;;
37451;SDS011;23314;51.114;6.900;2022-08-27T14:05:25;8.27;;;5.53;;
37451;SDS011;23314;51.114;6.900;2022-08-27T14:07:54;7.90;;;5.43;;
37451;SDS011;23314;51.114;6.900;2022-08-27T14:10:35;7.45;;;5.50;;
37451;SDS011;23314;51.114;6.900;2022-08-27T14:15:35;8.63;;;5.40;;
37451;SDS011;23314;51.114;6.900;2022-08-27T14:18:04;9.25;;;5.60;;
37451;SDS011;23314;51.114;6.900;2022-08-27T14:20:31;9.27;;;5.50;;
37451;SDS011;23314;51.114;6.900;2022-08-27T14:22:57;7.03;;;5.90;;
37451;SDS011;23314;51.114;6.900;2022-08-27T14:25:23;8.15;;;5.30;;
37451;SDS011;23314;51.114;6.900;2022-08-27T14:27:50;7.68;;;5.25;;
37451;SDS011;23314;51.114;6.900;2022-08-27T14:30:19;9.68;;;5.30;;
37451;SDS011;23314;51.114;6.900;2022-08-27T14:32:45;6.05;;;4.57;;
37451;SDS011;23314;51.114;6.900;2022-08-27T14:35:13;10.10;;;5.13;;
37451;SDS011;23314;51.114;6.900;2022-08-27T14:37:40;9.02;;;4.72;;
37451;SDS011;23314;51.114;6.900;2022-08-27T14:40:07;9.52;;;4.53;;
37451;SDS011;23314;51.114;6.900;2022-08-27T14:42:35;7.22;;;4.50;;
37451;SDS011;23314;51.114;6.900;2022-08-27T14:45:00;5.72;;;3.47;;
37451;SDS011;23314;51.114;6.900;2022-08-27T14:47:25;10.40;;;3.90;;
37451;SDS011;23314;51.114;6.900;2022-08-27T14:49:51;10.73;;;4.05;;
37451;SDS011;23314;51.114;6.900;2022-08-27T14:52:17;6.18;;;3.65;;
37451;SDS011;23314;51.114;6.900;2022-08-27T14:54:42;6.82;;;3.72;;
37451;SDS011;23314;51.114;6.900;2022-08-27T14:57:08;8.05;;;4.00;;
37451;SDS011;23314;51.114;6.900;2022-08-27T14:59:34;7.32;;;3.70;;
37451;SDS011;23314;51.114;6.900;2022-08-27T15:02:01;6.65;;;3.90;;
37451;SDS011;23314;51.114;6.900;2022-08-27T15:04:28;8.05;;;3.67;;
37451;SDS011;23314;51.114;6.900;2022-08-27T15:06:54;9.70;;;4.05;;
37451;SDS011;23314;51.114;6.900;2022-08-27T15:09:20;5.72;;;4.03;;
37451;SDS011;23314;51.114;6.900;2022-08-27T15:11:45;9.05;;;4.20;;
37451;SDS011;23314;51.114;6.900;2022-08-27T15:14:18;6.50;;;3.63;;
37451;SDS011;23314;51.114;6.900;2022-08-27T15:16:50;7.45;;;4.63;;
37451;SDS011;23314;51.114;6.900;2022-08-27T15:19:16;11.43;;;4.28;;
37451;SDS011;23314;51.114;6.900;2022-08-27T15:21:43;7.50;;;4.30;;
37451;SDS011;23314;51.114;6.900;2022-08-27T15:24:12;6.72;;;5.13;;
37451;SDS011;23314;51.114;6.900;2022-08-27T15:26:44;6.38;;;3.83;;
37451;SDS011;23314;51.114;6.900;2022-08-27T15:29:10;9.43;;;4.47;;
37451;SDS011;23314;51.114;6.900;2022-08-27T15:31:35;6.07;;;4.22;;
37451;SDS011;23314;51.114;6.900;2022-08-27T15:34:02;6.85;;;3.80;;
37451;SDS011;23314;51.114;6.900;2022-08-27T15:36:28;6.75;;;4.35;;
37451;SDS011;23314;51.114;6.900;2022-08-27T15:38:53;8.98;;;3.67;;
37451;SDS011;23314;51.114;6.900;2022-08-27T15:41:19;9.10;;;4.00;;
37451;SDS011;23314;51.114;6.900;2022-08-27T15:43:45;7.22;;;5.03;;
37451;SDS011;23314;51.114;6.900;2022-08-27T15:46:10;8.73;;;4.82;;
37451;SDS011;23314;51.114;6.900;2022-08-27T15:48:35;6.57;;;3.75;;
37451;SDS011;23314;51.114;6.900;2022-08-27T15:51:05;5.60;;;3.70;;
37451;SDS011;23314;51.114;6.900;2022-08-27T15:53:33;7.55;;;3.80;;
37451;SDS011;23314;51.114;6.900;2022-08-27T15:56:00;8.40;;;4.20;;
37451;SDS011;23314;51.114;6.900;2022-08-27T15:58:28;9.60;;;5.10;;
37451;SDS011;23314;51.114;6.900;2022-08-27T16:00:54;10.57;;;9.52;;
37451;SDS011;23314;51.114;6.900;2022-08-27T16:03:19;9.80;;;6.75;;
37451;SDS011;23314;51.114;6.900;2022-08-27T16:05:45;15.57;;;12.15;;
37451;SDS011;23314;51.114;6.900;2022-08-27T16:08:11;5.50;;;3.65;;
37451;SDS011;23314;51.114;6.900;2022-08-27T16:10:37;6.82;;;4.22;;
37451;SDS011;23314;51.114;6.900;2022-08-27T16:13:03;6.65;;;3.95;;
37451;SDS011;23314;51.114;6.900;2022-08-27T16:15:30;9.05;;;4.15;;
37451;SDS011;23314;51.114;6.900;2022-08-27T16:17:58;6.50;;;3.88;;
37451;SDS011;23314;51.114;6.900;2022-08-27T16:20:25;7.97;;;5.15;;
37451;SDS011;23314;51.114;6.900;2022-08-27T16:22:51;6.45;;;5.15;;
37451;SDS011;23314;51.114;6.900;2022-08-27T16:25:17;6.63;;;4.88;;
37451;SDS011;23314;51.114;6.900;2022-08-27T16:27:46;7.65;;;3.90;;
37451;SDS011;23314;51.114;6.900;2022-08-27T16:30:11;4.65;;;4.03;;
37451;SDS011;23314;51.114;6.900;2022-08-27T16:32:37;5.88;;;4.32;;
37451;SDS011;23314;51.114;6.900;2022-08-27T16:35:03;7.82;;;4.10;;
37451;SDS011;23314;51.114;6.900;2022-08-27T16:37:28;6.95;;;4.47;;
37451;SDS011;23314;51.114;6.900;2022-08-27T16:39:54;7.63;;;4.40;;
37451;SDS011;23314;51.114;6.900;2022-08-27T16:42:19;4.97;;;4.15;;